Time;durP1;ratioP1;P1;durP2;ratioP2;P2;SDS_P1;SDS_P2;PMS_P1;PMS_P2;Temp;Humidity;BMP_temperature;BMP_pressure;BME280_temperature;BME280_humidity;BME280_pressure;Samples;Min_cycle;Max_cycle;Signal;HPM_P1;HPM_P2
2021/10/02 00:35:14;;;;;;;3.57;1.63;;;;;;;13.45;nan;100769.72;5093597;28;20166;-67
2021/10/02 00:45:51;;;;;;;5.13;1.80;;;;;;;13.27;nan;100748.59;5093268;28;20214;-67
2021/10/02 00:48:16;;;;;;;3.17;1.80;;;;;;;13.60;nan;100758.94;5092772;28;20194;-67
2021/10/02 00:50:45;;;;;;;2.20;1.53;;;;;;;13.42;nan;100748.47;5091914;28;20548;-66
2021/10/02 00:53:10;;;;;;;4.13;1.93;;;;;;;13.33;nan;100749.06;5091984;28;20620;-67
2021/10/02 00:55:35;;;;;;;3.50;1.87;;;;;;;13.35;nan;100747.13;5092909;28;20177;-67
2021/10/02 00:58:00;;;;;;;2.27;1.30;;;;;;;13.21;nan;100740.97;5092821;28;20193;-67
2021/10/02 01:00:26;;;;;;;4.47;1.70;;;;;;;13.08;nan;100735.53;5092729;28;20247;-66
2021/10/02 01:03:00;;;;;;;2.67;1.67;;;;;;;13.17;nan;100737.63;5092926;28;20170;-67
2021/10/02 01:05:46;;;;;;;2.53;1.57;;;;;;;13.42;nan;100736.88;5074640;28;20553;-66
2021/10/02 01:08:26;;;;;;;3.07;1.80;;;;;;;13.34;nan;100734.69;5092790;28;20198;-66
2021/10/02 01:10:57;;;;;;;4.97;1.70;;;;;;;13.35;nan;100741.75;5093068;28;20186;-67
2021/10/02 01:13:49;;;;;;;4.83;2.00;;;;;;;13.45;nan;100745.59;5091910;28;20155;-67
2021/10/02 01:16:29;;;;;;;7.37;2.10;;;;;;;13.49;nan;100742.69;5093437;28;20174;-67
2021/10/02 01:19:19;;;;;;;3.07;1.97;;;;;;;13.63;nan;100745.31;5092327;28;20560;-67
2021/10/02 01:21:54;;;;;;;4.83;1.80;;;;;;;13.26;nan;100722.75;5093032;28;20166;-66
2021/10/02 01:24:44;;;;;;;4.90;1.83;;;;;;;13.41;nan;100724.44;5091973;28;20172;-67
2021/10/02 01:27:49;;;;;;;5.07;2.00;;;;;;;13.20;nan;100725.84;5092001;28;20671;-67
2021/10/02 01:30:21;;;;;;;4.77;2.03;;;;;;;13.54;nan;100735.19;5092802;28;20603;-67
2021/10/02 01:32:58;;;;;;;7.37;2.00;;;;;;;13.26;nan;100725.44;5091402;28;20159;-67
2021/10/02 01:47:08;;;;;;;10.40;2.23;;;;;;;13.35;nan;100730.19;5095982;28;20662;-67
2021/10/02 01:49:07;;;;;;;4.97;1.97;;;;;;;13.52;nan;100738.00;5095280;28;20189;-67
2021/10/02 01:51:32;;;;;;;3.70;2.03;;;;;;;13.49;nan;100727.47;5078401;28;20273;-67
2021/10/02 01:53:58;;;;;;;4.37;1.70;;;;;;;13.56;nan;100714.50;5096680;28;20608;-67
2021/10/02 01:56:24;;;;;;;5.87;1.87;;;;;;;13.72;nan;100716.03;5095347;28;20189;-68
2021/10/02 01:58:50;;;;;;;4.13;1.83;;;;;;;13.68;nan;100716.34;5095067;28;20194;-67
2021/10/02 02:01:16;;;;;;;4.63;2.00;;;;;;;13.51;nan;100713.97;5096881;28;20265;-67
2021/10/02 02:03:44;;;;;;;4.50;1.73;;;;;;;13.50;nan;100717.59;5094918;28;20178;-67
2021/10/02 02:06:10;;;;;;;3.33;2.20;;;;;;;13.69;nan;100724.28;5096177;28;20171;-67
2021/10/02 02:08:36;;;;;;;5.97;2.03;;;;;;;13.69;nan;100718.06;5094656;28;20625;-67
2021/10/02 02:11:01;;;;;;;5.43;2.13;;;;;;;13.66;nan;100712.91;5094791;28;20179;-67
2021/10/02 02:13:27;;;;;;;3.33;1.87;;;;;;;13.48;nan;100722.22;5094785;28;20174;-67
2021/10/02 02:15:57;;;;;;;3.97;2.00;;;;;;;13.40;nan;100706.66;5094965;28;20228;-67
2021/10/02 02:18:23;;;;;;;2.67;1.77;;;;;;;13.56;nan;100719.88;5077794;28;20194;-66
2021/10/02 02:20:59;;;;;;;4.63;1.80;;;;;;;13.16;nan;100709.06;5095066;28;20178;-66
2021/10/02 02:23:25;;;;;;;5.90;2.20;;;;;;;13.51;nan;100724.69;5096477;28;20249;-65
2021/10/02 02:25:54;;;;;;;4.73;1.90;;;;;;;13.57;nan;100713.53;5095323;28;20536;-66
2021/10/02 02:28:21;;;;;;;3.97;1.90;;;;;;;13.36;nan;100705.97;5095917;28;20202;-66
2021/10/02 02:30:47;;;;;;;3.23;2.10;;;;;;;13.60;nan;100714.19;5095739;28;20701;-66
2021/10/02 02:33:15;;;;;;;2.30;1.73;;;;;;;13.50;nan;100702.38;5095903;28;20275;-66
2021/10/02 02:35:40;;;;;;;3.50;2.00;;;;;;;13.36;nan;100705.97;5095342;28;20178;-66
2021/10/02 02:38:05;;;;;;;9.37;2.30;;;;;;;13.43;nan;100701.06;5095381;28;20193;-66
2021/10/02 02:40:31;;;;;;;5.40;2.10;;;;;;;13.36;nan;100694.38;5095270;28;20204;-66
2021/10/02 02:42:56;;;;;;;4.87;1.93;;;;;;;13.51;nan;100708.59;5095580;28;20174;-66
2021/10/02 02:45:22;;;;;;;6.33;1.90;;;;;;;13.54;nan;100703.88;5075941;28;20175;-67
2021/10/02 02:47:51;;;;;;;4.37;2.27;;;;;;;13.33;nan;100695.44;5095200;28;20202;-66
2021/10/02 02:50:39;;;;;;;5.30;2.53;;;;;;;13.36;nan;100695.22;5077045;28;20175;-66
2021/10/02 02:53:22;;;;;;;4.00;2.30;;;;;;;13.64;nan;100709.47;5093903;28;20228;-66
2021/10/02 02:56:02;;;;;;;2.93;1.73;;;;;;;13.20;nan;100691.88;5093757;28;20159;-66
2021/10/02 02:58:29;;;;;;;6.03;2.23;;;;;;;13.44;nan;100697.44;5093762;28;20698;-66
2021/10/02 03:00:57;;;;;;;4.67;2.20;;;;;;;13.37;nan;100693.41;5093847;28;20208;-66
2021/10/02 03:03:26;;;;;;;4.03;2.20;;;;;;;13.54;nan;100697.66;5095003;28;20182;-66
2021/10/02 03:05:54;;;;;;;3.63;2.40;;;;;;;13.45;nan;100688.44;5094931;28;20170;-66
2021/10/02 03:08:20;;;;;;;3.03;2.00;;;;;;;13.07;nan;100678.41;5091188;23;20219;-71
2021/10/02 03:10:47;;;;;;;4.17;2.50;;;;;;;13.33;nan;100679.34;5054589;28;20184;-71
2021/10/02 03:13:15;;;;;;;2.80;2.03;;;;;;;13.13;nan;100671.75;5053182;28;20179;-72
2021/10/02 03:15:42;;;;;;;7.43;2.40;;;;;;;13.48;nan;100680.16;5053133;28;20196;-70
2021/10/02 03:18:09;;;;;;;3.93;2.20;;;;;;;13.39;nan;100681.66;5052910;28;20258;-71
2021/10/02 03:20:37;;;;;;;2.43;2.10;;;;;;;13.32;nan;100672.28;5052837;28;20182;-73
2021/10/02 03:23:02;;;;;;;5.87;2.13;;;;;;;13.40;nan;100679.84;5052895;28;20561;-71
2021/10/02 03:25:30;;;;;;;8.07;2.13;;;;;;;13.32;nan;100674.09;5036741;28;20191;-72
2021/10/02 03:27:57;;;;;;;6.93;2.37;;;;;;;13.08;nan;100677.44;5052779;28;20562;-72
2021/10/02 03:30:23;;;;;;;2.97;1.97;;;;;;;13.25;nan;100673.66;5052972;28;20187;-72
2021/10/02 03:32:49;;;;;;;6.53;3.10;;;;;;;13.22;nan;100679.22;5053338;28;20646;-71
2021/10/02 03:35:16;;;;;;;3.57;2.10;;;;;;;13.48;nan;100682.84;5053740;28;20175;-73
2021/10/02 03:37:42;;;;;;;3.97;2.30;;;;;;;13.34;nan;100677.53;5052438;28;20215;-72
2021/10/02 03:40:09;;;;;;;6.40;2.17;;;;;;;13.30;nan;100676.03;5052527;28;20180;-73
2021/10/02 03:42:46;;;;;;;4.27;2.43;;;;;;;13.20;nan;100681.16;5052478;28;20206;-72
2021/10/02 03:45:12;;;;;;;2.90;1.80;;;;;;;13.16;nan;100690.31;5054071;28;20240;-73
2021/10/02 03:47:37;;;;;;;3.13;2.13;;;;;;;13.40;nan;100687.88;5052154;28;20207;-72
2021/10/02 03:50:04;;;;;;;7.57;2.20;;;;;;;13.34;nan;100685.56;5052244;28;20546;-72
2021/10/02 03:52:30;;;;;;;5.03;2.13;;;;;;;13.23;nan;100680.94;5053659;28;20261;-74
2021/10/02 03:54:55;;;;;;;4.67;2.20;;;;;;;13.13;nan;100675.31;5053511;28;20218;-73
2021/10/02 03:57:20;;;;;;;6.13;2.27;;;;;;;13.31;nan;100681.28;5053199;28;20191;-72
2021/10/02 03:59:46;;;;;;;3.70;2.30;;;;;;;13.03;nan;100678.69;5053330;28;20289;-72
2021/10/02 04:02:11;;;;;;;6.30;2.13;;;;;;;13.13;nan;100690.53;5053385;28;20591;-73
2021/10/02 04:04:36;;;;;;;3.67;2.80;;;;;;;13.23;nan;100688.97;5053426;28;20182;-73
2021/10/02 04:07:02;;;;;;;9.93;2.30;;;;;;;13.27;nan;100685.13;5068470;28;20203;-73
2021/10/02 04:09:27;;;;;;;6.20;2.40;;;;;;;13.69;nan;100689.44;5052263;28;20645;-73
2021/10/02 04:11:53;;;;;;;4.70;2.27;;;;;;;13.57;nan;100689.41;5053352;28;20608;-72
2021/10/02 04:14:18;;;;;;;5.50;2.30;;;;;;;13.25;nan;100670.13;5052238;28;20206;-72
2021/10/02 04:16:44;;;;;;;3.30;2.00;;;;;;;13.41;nan;100679.72;5052025;28;20172;-72
2021/10/02 04:19:09;;;;;;;6.30;2.10;;;;;;;13.11;nan;100673.69;5051588;28;20673;-72
2021/10/02 04:21:35;;;;;;;5.37;2.33;;;;;;;13.26;nan;100671.84;5035127;28;20172;-73
2021/10/02 04:24:00;;;;;;;5.00;2.20;;;;;;;13.25;nan;100684.38;5053137;28;20545;-72
2021/10/02 04:26:26;;;;;;;7.00;2.50;;;;;;;13.05;nan;100674.09;5052510;28;20175;-72
2021/10/02 04:28:51;;;;;;;4.73;2.30;;;;;;;13.36;nan;100683.66;5052713;28;20229;-73
2021/10/02 04:31:17;;;;;;;5.43;2.50;;;;;;;13.07;nan;100675.72;5052985;28;20202;-72
2021/10/02 04:33:43;;;;;;;4.13;2.40;;;;;;;13.20;nan;100683.81;5052749;28;20572;-73
2021/10/02 04:36:08;;;;;;;5.23;2.30;;;;;;;13.40;nan;100687.88;5052203;28;20654;-73
2021/10/02 04:38:33;;;;;;;3.27;2.23;;;;;;;13.05;nan;100684.81;5052701;28;20198;-74
2021/10/02 04:40:59;;;;;;;4.67;2.60;;;;;;;13.17;nan;100685.81;5051930;28;20175;-73
2021/10/02 04:43:24;;;;;;;6.00;2.70;;;;;;;12.80;nan;100677.50;5068179;28;20176;-72
2021/10/02 04:45:50;;;;;;;3.93;2.03;;;;;;;13.25;nan;100689.75;5052993;28;20175;-72
2021/10/02 04:48:15;;;;;;;4.83;2.10;;;;;;;12.94;nan;100685.50;5052547;28;20249;-73
2021/10/02 04:50:41;;;;;;;2.77;2.00;;;;;;;13.08;nan;100693.50;5052168;28;20183;-73
2021/10/02 04:53:06;;;;;;;4.50;2.40;;;;;;;13.01;nan;100684.16;5051420;28;20576;-73
2021/10/02 04:55:32;;;;;;;7.27;2.43;;;;;;;12.79;nan;100678.47;5053027;28;20214;-73
2021/10/02 04:57:57;;;;;;;3.47;2.20;;;;;;;13.23;nan;100696.16;5051404;28;20261;-74
2021/10/02 05:00:22;;;;;;;3.07;2.30;;;;;;;13.07;nan;100693.59;5053049;28;20238;-73
2021/10/02 05:02:48;;;;;;;6.23;2.40;;;;;;;13.15;nan;100691.28;5051433;28;20231;-74
2021/10/02 05:05:13;;;;;;;3.97;2.27;;;;;;;13.04;nan;100688.44;5052863;28;20176;-72
2021/10/02 05:07:38;;;;;;;6.03;2.37;;;;;;;13.00;nan;100694.94;5052398;28;20207;-73
2021/10/02 05:10:04;;;;;;;5.80;2.10;;;;;;;13.10;nan;100696.09;5055657;28;20179;-74
2021/10/02 05:12:29;;;;;;;5.37;2.73;;;;;;;12.97;nan;100701.38;5055443;28;20664;-72
2021/10/02 05:14:54;;;;;;;6.87;2.77;;;;;;;13.21;nan;100717.69;5057072;28;20184;-72
2021/10/02 05:17:20;;;;;;;5.23;2.50;;;;;;;12.93;nan;100702.53;5057112;28;20328;-73
2021/10/02 05:19:46;;;;;;;4.03;2.50;;;;;;;12.70;nan;100709.38;5056807;28;20186;-73
2021/10/02 05:22:11;;;;;;;8.13;2.80;;;;;;;12.72;nan;100703.91;5055649;28;20575;-74
2021/10/02 05:24:39;;;;;;;5.27;2.53;;;;;;;12.74;nan;100708.22;5055127;28;20179;-73
2021/10/02 05:27:09;;;;;;;4.17;2.67;;;;;;;12.69;nan;100704.97;5071807;28;20248;-73
2021/10/02 05:29:35;;;;;;;3.63;2.47;;;;;;;13.05;nan;100715.16;5055648;28;20172;-72
2021/10/02 05:32:02;;;;;;;3.60;2.60;;;;;;;13.12;nan;100718.28;5055016;28;20654;-73
2021/10/02 05:34:27;;;;;;;3.53;2.40;;;;;;;13.08;nan;100717.63;5055004;28;20190;-73
2021/10/02 05:36:52;;;;;;;7.07;2.93;;;;;;;13.19;nan;100718.75;5056488;28;20541;-74
2021/10/02 05:39:18;;;;;;;5.17;2.40;;;;;;;13.04;nan;100710.75;5056749;28;20254;-72
2021/10/02 05:41:43;;;;;;;3.37;2.50;;;;;;;13.15;nan;100710.03;5055158;28;20642;-75
2021/10/02 05:44:08;;;;;;;5.20;2.77;;;;;;;13.09;nan;100710.44;5055025;28;20290;-73
2021/10/02 05:46:33;;;;;;;5.70;2.60;;;;;;;13.20;nan;100712.44;5071312;28;20183;-74
2021/10/02 05:48:59;;;;;;;5.93;3.23;;;;;;;12.82;nan;100705.03;5056012;28;20208;-73
2021/10/02 05:51:24;;;;;;;3.97;2.20;;;;;;;12.98;nan;100711.13;5071375;28;20711;-73
2021/10/02 05:53:51;;;;;;;4.53;2.77;;;;;;;12.87;nan;100712.78;5038563;28;20187;-73
2021/10/02 05:56:16;;;;;;;7.63;2.70;;;;;;;13.02;nan;100722.53;5038474;28;20175;-75
2021/10/02 05:58:42;;;;;;;11.00;2.67;;;;;;;12.87;nan;100718.13;5054794;28;20248;-74
2021/10/02 06:01:07;;;;;;;4.27;2.37;;;;;;;12.71;nan;100713.78;5055848;28;20179;-74
2021/10/02 06:03:32;;;;;;;7.57;2.80;;;;;;;12.98;nan;100721.84;5055371;28;20653;-75
2021/10/02 06:06:00;;;;;;;7.13;3.10;;;;;;;13.04;nan;100725.97;5054843;28;20187;-72
2021/10/02 06:08:27;;;;;;;5.83;2.80;;;;;;;12.65;nan;100714.16;5054467;28;20211;-72
2021/10/02 06:10:52;;;;;;;5.50;2.43;;;;;;;12.94;nan;100720.31;5054852;28;20183;-74
2021/10/02 06:13:18;;;;;;;3.17;2.50;;;;;;;13.22;nan;100721.25;5055043;28;20195;-73
2021/10/02 06:15:43;;;;;;;6.57;3.10;;;;;;;13.21;nan;100717.69;5055830;28;20708;-73
2021/10/02 06:18:08;;;;;;;4.00;2.57;;;;;;;13.50;nan;100723.81;5054888;28;20229;-72
2021/10/02 06:20:34;;;;;;;5.07;2.87;;;;;;;13.41;nan;100719.09;5054466;28;20565;-74
2021/10/02 06:23:03;;;;;;;3.07;2.20;;;;;;;13.76;nan;100724.75;5055901;28;20175;-73
2021/10/02 06:25:28;;;;;;;3.97;2.60;;;;;;;13.74;nan;100716.78;5055931;28;20254;-72
2021/10/02 06:27:53;;;;;;;6.80;2.97;;;;;;;14.05;nan;100712.00;5054377;28;20298;-73
2021/10/02 06:30:19;;;;;;;3.37;2.33;;;;;;;13.95;nan;100719.84;5055854;28;20184;-73
2021/10/02 06:32:45;;;;;;;5.20;2.13;;;;;;;13.99;nan;100726.72;5054533;28;20206;-74
2021/10/02 06:35:10;;;;;;;5.27;2.97;;;;;;;13.90;nan;100740.78;5056012;28;20180;-73
2021/10/02 06:37:35;;;;;;;5.40;2.60;;;;;;;13.83;nan;100749.34;5054527;28;20191;-73
2021/10/02 06:40:01;;;;;;;5.73;2.87;;;;;;;13.37;nan;100738.97;5070981;28;20176;-73
2021/10/02 06:42:26;;;;;;;4.40;2.60;;;;;;;13.53;nan;100744.22;5055842;28;20179;-74
2021/10/02 06:44:51;;;;;;;3.27;2.60;;;;;;;13.54;nan;100753.97;5054434;28;20222;-73
2021/10/02 06:47:16;;;;;;;5.30;2.93;;;;;;;13.54;nan;100753.97;5054753;28;20237;-73
2021/10/02 06:49:42;;;;;;;5.73;2.40;;;;;;;13.43;nan;100750.19;5055265;28;20180;-73
2021/10/02 06:52:07;;;;;;;3.93;2.13;;;;;;;13.51;nan;100747.00;5070540;28;20183;-71
2021/10/02 06:54:32;;;;;;;4.40;2.70;;;;;;;14.07;nan;100758.38;5055174;28;20175;-72
2021/10/02 06:56:58;;;;;;;5.17;2.63;;;;;;;14.29;nan;100757.78;5055151;28;20190;-72
2021/10/02 06:59:25;;;;;;;5.77;2.83;;;;;;;14.07;nan;100743.16;5054409;28;20542;-73
2021/10/02 07:01:51;;;;;;;6.17;2.63;;;;;;;13.55;nan;100743.16;5053705;28;20199;-73
2021/10/02 07:04:16;;;;;;;6.87;2.70;;;;;;;13.88;nan;100749.88;5037021;28;20611;-73
2021/10/02 07:06:41;;;;;;;4.17;2.80;;;;;;;13.70;nan;100746.59;5054995;28;20176;-73
2021/10/02 07:09:07;;;;;;;6.17;2.90;;;;;;;14.55;nan;100764.91;5053427;28;20219;-74
2021/10/02 07:11:32;;;;;;;4.57;2.50;;;;;;;14.56;nan;100757.72;5055275;28;20188;-74
2021/10/02 07:13:57;;;;;;;4.90;2.73;;;;;;;14.57;nan;100740.63;5055031;28;20199;-73
2021/10/02 07:16:23;;;;;;;4.93;2.80;;;;;;;14.64;nan;100737.41;5053997;28;20185;-73
2021/10/02 07:18:48;;;;;;;3.00;2.60;;;;;;;15.04;nan;100737.22;5054924;28;20206;-73
2021/10/02 07:21:13;;;;;;;7.57;2.43;;;;;;;14.73;nan;100706.31;5054587;28;20498;-73
2021/10/02 07:23:38;;;;;;;4.10;2.57;;;;;;;14.57;nan;100706.56;5036376;28;20680;-73
2021/10/02 07:26:06;;;;;;;6.43;2.43;;;;;;;14.71;nan;100737.81;5053577;28;20168;-73
2021/10/02 07:28:32;;;;;;;4.93;2.57;;;;;;;14.90;nan;100723.94;5054288;28;20561;-72
2021/10/02 07:30:57;;;;;;;4.07;2.50;;;;;;;15.13;nan;100722.22;5054359;28;20176;-73
2021/10/02 07:33:22;;;;;;;4.70;2.60;;;;;;;15.05;nan;100713.88;5052525;28;20588;-73
2021/10/02 07:35:47;;;;;;;10.43;2.93;;;;;;;15.50;nan;100709.59;5053070;28;20176;-73
2021/10/02 07:38:13;;;;;;;3.77;2.43;;;;;;;15.44;nan;100713.59;5053372;28;20192;-73
2021/10/02 07:40:39;;;;;;;7.17;2.50;;;;;;;15.88;nan;100712.09;5052831;28;20191;-72
2021/10/02 07:43:04;;;;;;;8.03;2.40;;;;;;;15.87;nan;100700.47;5054229;28;20638;-74
2021/10/02 07:45:31;;;;;;;4.50;2.40;;;;;;;15.44;nan;100697.47;5052755;28;20263;-73
2021/10/02 07:47:57;;;;;;;8.13;2.97;;;;;;;15.12;nan;100702.56;5052540;28;20229;-73
2021/10/02 07:50:23;;;;;;;4.07;2.70;;;;;;;14.46;nan;100697.53;5052771;28;20699;-73
2021/10/02 07:52:50;;;;;;;4.87;2.93;;;;;;;14.55;nan;100718.41;5052890;28;20176;-73
2021/10/02 07:55:16;;;;;;;4.43;2.60;;;;;;;15.24;nan;100733.94;5052922;28;20171;-72
2021/10/02 07:57:45;;;;;;;4.67;2.60;;;;;;;15.58;nan;100726.03;5036217;28;20187;-73
2021/10/02 08:00:13;;;;;;;4.73;3.13;;;;;;;14.73;nan;100713.53;5053959;28;20225;-73
2021/10/02 08:02:46;;;;;;;4.57;2.60;;;;;;;15.43;nan;100716.41;5053824;28;20206;-72
2021/10/02 08:05:13;;;;;;;5.50;2.57;;;;;;;16.13;nan;100695.75;5052617;28;20285;-73
2021/10/02 08:07:41;;;;;;;4.97;3.10;;;;;;;16.01;nan;100680.59;5051777;28;20636;-72
2021/10/02 08:10:07;;;;;;;6.60;3.47;;;;;;;15.94;nan;100685.56;5052210;28;20206;-74
2021/10/02 08:12:33;;;;;;;8.07;3.60;;;;;;;16.02;nan;100681.44;5052119;28;20262;-73
2021/10/02 08:14:58;;;;;;;7.73;4.40;;;;;;;16.43;nan;100679.03;5052695;28;20642;-72
2021/10/02 08:17:26;;;;;;;7.63;3.97;;;;;;;16.75;nan;100683.72;5052718;28;20195;-73
2021/10/02 08:19:55;;;;;;;6.27;4.07;;;;;;;17.15;nan;100684.00;5053679;28;20249;-73
2021/10/02 08:22:23;;;;;;;5.97;4.23;;;;;;;17.27;nan;100690.22;5051967;28;20170;-72
2021/10/02 08:24:50;;;;;;;9.20;4.47;;;;;;;17.66;nan;100678.75;5051982;28;20172;-73
2021/10/02 08:27:15;;;;;;;6.77;3.43;;;;;;;17.42;nan;100665.50;5051692;28;20192;-72
2021/10/02 08:29:41;;;;;;;6.10;3.67;;;;;;;17.63;nan;100678.16;5051828;28;20210;-72
2021/10/02 08:32:06;;;;;;;6.40;3.00;;;;;;;18.14;nan;100667.47;5051762;28;20176;-72
2021/10/02 08:34:31;;;;;;;4.17;2.87;;;;;;;17.74;nan;100678.13;5052855;28;20210;-73
2021/10/02 08:36:57;;;;;;;5.77;3.00;;;;;;;18.57;nan;100688.84;5068217;28;20175;-73
2021/10/02 08:39:22;;;;;;;6.17;2.97;;;;;;;18.18;nan;100666.19;5052842;28;20216;-73
2021/10/02 08:41:48;;;;;;;5.57;3.10;;;;;;;18.27;nan;100661.88;5052821;28;20779;-73
2021/10/02 08:44:17;;;;;;;6.70;3.10;;;;;;;18.52;nan;100674.91;5050835;28;20172;-73
2021/10/02 08:46:44;;;;;;;4.93;2.57;;;;;;;18.73;nan;100685.69;5051745;28;20184;-73
2021/10/02 08:49:32;;;;;;;4.50;2.67;;;;;;;19.06;nan;100692.63;5051419;28;20230;-73
2021/10/02 08:52:02;;;;;;;5.97;2.73;;;;;;;18.91;nan;100689.44;5051602;28;20633;-73
2021/10/02 08:54:28;;;;;;;6.00;2.90;;;;;;;19.16;nan;100687.22;5051387;28;20207;-72
2021/10/02 08:56:53;;;;;;;6.47;3.13;;;;;;;20.11;nan;100688.25;5051740;28;20240;-74
2021/10/02 08:59:22;;;;;;;5.47;3.07;;;;;;;19.63;nan;100662.06;5052416;28;20176;-72
2021/10/02 09:01:48;;;;;;;5.33;3.40;;;;;;;18.78;nan;100666.34;5051855;28;20167;-73
2021/10/02 09:04:13;;;;;;;6.00;3.80;;;;;;;18.75;nan;100675.59;5051483;28;20684;-72
2021/10/02 09:06:38;;;;;;;7.63;4.03;;;;;;;18.95;nan;100677.34;5051652;28;20203;-72
2021/10/02 09:09:05;;;;;;;6.33;3.97;;;;;;;19.49;nan;100686.84;5075410;23;20241;-67
2021/10/02 09:11:31;;;;;;;5.57;3.73;;;;;;;20.23;nan;100681.66;5054176;28;20270;-67
2021/10/02 09:13:56;;;;;;;6.43;3.90;;;;;;;19.83;nan;100673.75;5053325;28;20067;-66
2021/10/02 09:16:21;;;;;;;7.77;4.47;;;;;;;20.41;nan;100667.34;5052757;28;20179;-66
2021/10/02 09:18:47;;;;;;;8.80;4.20;;;;;;;20.09;nan;100670.44;5052574;28;20195;-67
2021/10/02 09:21:12;;;;;;;6.57;4.67;;;;;;;20.60;nan;100670.84;5052960;28;20171;-66
2021/10/02 09:23:43;;;;;;;7.17;4.27;;;;;;;19.44;nan;100653.09;5052897;28;20183;-66
2021/10/02 09:26:08;;;;;;;6.60;3.90;;;;;;;20.03;nan;100668.28;5053573;28;20168;-67
2021/10/02 09:28:45;;;;;;;7.40;3.70;;;;;;;20.41;nan;100697.16;5035417;28;20669;-67
2021/10/02 09:31:11;;;;;;;6.17;4.03;;;;;;;20.47;nan;100685.75;5053253;28;20180;-68
2021/10/02 09:33:43;;;;;;;5.23;3.43;;;;;;;20.96;nan;100686.38;5054110;28;20180;-67
2021/10/02 09:36:18;;;;;;;7.60;3.53;;;;;;;21.39;nan;100691.97;5054266;28;20163;-67
2021/10/02 09:38:48;;;;;;;4.77;3.47;;;;;;;21.32;nan;100681.91;5052569;28;20187;-67
2021/10/02 09:41:13;;;;;;;7.50;3.40;;;;;;;21.09;nan;100676.88;5053228;28;20183;-67
2021/10/02 09:43:46;;;;;;;8.03;3.60;;;;;;;21.14;nan;100673.69;5053313;28;20179;-67
2021/10/02 09:46:12;;;;;;;6.43;3.20;;;;;;;20.16;nan;100653.44;5052141;28;20147;-67
2021/10/02 09:48:37;;;;;;;6.43;3.40;;;;;;;19.75;nan;100651.97;5053337;28;20290;-67
2021/10/02 09:51:05;;;;;;;7.30;3.87;;;;;;;19.90;nan;100674.03;5053282;28;20214;-66
2021/10/02 09:53:37;;;;;;;7.43;3.40;;;;;;;19.30;nan;100667.88;5052780;28;20175;-67
2021/10/02 09:56:07;;;;;;;4.67;3.17;;;;;;;19.14;nan;100689.22;5055868;28;20594;-67
2021/10/02 09:58:34;;;;;;;4.47;2.73;;;;;;;18.94;nan;100681.03;5056292;28;20807;-67
2021/10/02 10:01:01;;;;;;;6.33;3.20;;;;;;;19.18;nan;100685.25;5054939;28;20183;-67
2021/10/02 10:03:45;;;;;;;3.97;2.60;;;;;;;19.26;nan;100664.59;5055523;28;20172;-67
2021/10/02 10:06:19;;;;;;;5.50;2.23;;;;;;;19.24;nan;100641.38;5056315;28;20297;-67
2021/10/02 10:08:45;;;;;;;6.53;2.57;;;;;;;19.34;nan;100658.50;5056036;28;20208;-67
2021/10/02 10:11:11;;;;;;;3.43;2.50;;;;;;;19.55;nan;100682.75;5055072;28;20565;-67
2021/10/02 10:13:38;;;;;;;6.77;2.13;;;;;;;19.58;nan;100695.97;5056130;28;20293;-67
2021/10/02 10:16:08;;;;;;;4.77;2.30;;;;;;;19.84;nan;100677.31;5056391;28;20622;-66
2021/10/02 10:18:34;;;;;;;2.40;1.90;;;;;;;19.37;nan;100674.44;5054636;28;20274;-67
2021/10/02 10:21:05;;;;;;;2.27;1.80;;;;;;;19.03;nan;100661.31;5056329;28;20184;-66
2021/10/02 10:23:42;;;;;;;2.40;1.70;;;;;;;19.92;nan;100677.44;5055879;28;20184;-67
2021/10/02 10:26:12;;;;;;;4.67;2.10;;;;;;;19.74;nan;100658.38;5055671;28;20215;-66
2021/10/02 10:28:39;;;;;;;2.60;1.90;;;;;;;20.40;nan;100684.63;5055828;28;20665;-67
2021/10/02 10:31:18;;;;;;;5.87;2.40;;;;;;;20.51;nan;100666.34;5054489;28;20179;-67
2021/10/02 10:33:45;;;;;;;3.30;2.07;;;;;;;20.13;nan;100659.16;5054474;28;20626;-67
2021/10/02 10:36:13;;;;;;;4.97;2.10;;;;;;;20.48;nan;100665.78;5055849;28;20179;-67
2021/10/02 10:38:39;;;;;;;7.60;2.30;;;;;;;19.87;nan;100636.41;5055923;28;20322;-67
2021/10/02 10:41:05;;;;;;;3.23;2.10;;;;;;;21.46;nan;100663.19;5056670;28;20179;-67
2021/10/02 10:43:31;;;;;;;4.70;2.00;;;;;;;21.31;nan;100669.34;5055585;28;20168;-66
2021/10/02 10:46:02;;;;;;;3.33;2.30;;;;;;;21.04;nan;100632.22;5055608;28;20176;-66
2021/10/02 10:48:27;;;;;;;3.97;2.70;;;;;;;23.23;nan;100665.47;5055480;28;20222;-67
2021/10/02 10:50:53;;;;;;;3.13;2.30;;;;;;;25.48;nan;100642.47;5055354;28;20724;-67
2021/10/02 10:53:18;;;;;;;6.53;2.30;;;;;;;27.10;nan;100641.81;5055968;28;20183;-66
2021/10/02 10:55:53;;;;;;;4.00;2.17;;;;;;;27.04;nan;100616.06;5053963;28;20649;-66
2021/10/02 10:58:27;;;;;;;4.93;2.80;;;;;;;28.37;nan;100609.88;5054090;28;20222;-67
2021/10/02 11:00:53;;;;;;;5.73;2.67;;;;;;;28.88;nan;100591.13;5055120;28;20182;-66
2021/10/02 11:03:37;;;;;;;5.13;2.53;;;;;;;30.38;nan;100578.72;5055311;28;20214;-67
2021/10/02 11:06:07;;;;;;;5.33;2.30;;;;;;;32.19;nan;100566.09;5069709;28;20522;-67
2021/10/02 11:08:55;;;;;;;2.93;2.07;;;;;;;32.47;nan;100528.84;5054357;28;20211;-67
2021/10/02 11:11:43;;;;;;;3.03;1.67;;;;;;;32.79;nan;100516.56;5055045;28;20159;-67
2021/10/02 11:14:08;;;;;;;2.80;2.07;;;;;;;31.00;nan;100461.50;5054879;28;20661;-68
2021/10/02 11:16:36;;;;;;;6.97;2.00;;;;;;;30.37;nan;100466.91;5055232;28;20172;-68
2021/10/02 11:19:02;;;;;;;2.93;1.93;;;;;;;30.41;nan;100481.94;5053255;28;20210;-68
2021/10/02 11:21:31;;;;;;;;;;;;;;;31.75;nan;100491.84;5053824;28;20191;-68
2021/10/02 11:24:01;;;;;;;;;;;;;;;30.85;nan;100460.94;5054966;28;19995;-66
2021/10/02 11:26:27;;;;;;;;;;;;;;;29.49;nan;100439.03;5053782;28;20370;-67
2021/10/02 11:28:58;;;;;;;;;;;;;;;28.30;nan;100449.84;5054835;28;19909;-67
2021/10/02 11:31:24;;;;;;;5.90;1.70;;;;;;;28.08;nan;100438.09;5054921;28;19920;-67
2021/10/02 11:33:54;;;;;;;3.87;1.50;;;;;;;27.27;nan;100423.25;5055372;28;20176;-68
2021/10/02 11:36:31;;;;;;;3.43;1.90;;;;;;;28.37;nan;100469.06;5053249;28;20185;-68
2021/10/02 11:39:09;;;;;;;3.70;1.77;;;;;;;27.37;nan;100415.53;5054263;28;20502;-68
2021/10/02 11:41:36;;;;;;;4.87;2.00;;;;;;;31.61;nan;100482.84;5054000;28;20222;-68
2021/10/02 11:44:01;;;;;;;3.17;1.70;;;;;;;32.96;nan;100472.50;5052834;28;20179;-67
2021/10/02 11:46:27;;;;;;;3.63;1.50;;;;;;;31.54;nan;100432.41;5054230;28;20191;-67
2021/10/02 11:48:52;;;;;;;2.17;1.53;;;;;;;30.95;nan;100434.59;5054169;28;20203;-68
2021/10/02 11:51:29;;;;;;;3.13;1.60;;;;;;;29.40;nan;100443.88;5054095;28;20192;-68
2021/10/02 11:53:57;;;;;;;2.77;1.57;;;;;;;29.62;nan;100411.50;5053915;28;20289;-67
2021/10/02 11:56:28;;;;;;;4.10;1.63;;;;;;;31.70;nan;100467.69;5053144;28;20207;-68
2021/10/02 11:58:56;;;;;;;2.67;1.40;;;;;;;32.02;nan;100425.09;5052714;28;20188;-68
2021/10/02 12:01:26;;;;;;;3.13;1.60;;;;;;;28.41;nan;100418.22;5053789;28;20700;-68
2021/10/02 12:04:06;;;;;;;3.13;1.87;;;;;;;29.92;nan;100424.75;5069296;28;20183;-68
2021/10/02 12:06:33;;;;;;;4.30;1.50;;;;;;;27.09;nan;100399.09;5054522;28;20204;-68
2021/10/02 12:08:59;;;;;;;7.10;1.40;;;;;;;27.87;nan;100422.59;5052338;28;20203;-68
2021/10/02 12:11:25;;;;;;;4.73;1.63;;;;;;;26.50;nan;100402.13;5053958;28;20262;-68
2021/10/02 12:13:52;;;;;;;3.13;1.33;;;;;;;27.42;nan;100454.97;5053883;28;20655;-67
2021/10/02 12:16:30;;;;;;;5.13;1.50;;;;;;;27.59;nan;100452.78;5053911;28;20326;-68
2021/10/02 12:19:10;;;;;;;3.20;1.40;;;;;;;30.02;nan;100494.78;5053540;28;20661;-68
2021/10/02 12:21:50;;;;;;;2.57;1.37;;;;;;;29.36;nan;100450.00;5068996;28;20180;-68
2021/10/02 12:24:19;;;;;;;;;;;;;;;29.43;nan;100442.63;5054140;28;20163;-67
2021/10/02 12:26:49;;;;;;;4.47;1.90;;;;;;;28.10;nan;100429.66;5052771;28;19920;-68
2021/10/02 12:29:20;;;;;;;5.10;3.20;;;;;;;27.35;nan;100453.25;5053447;28;20677;-68
2021/10/02 12:31:57;;;;;;;4.00;1.93;;;;;;;26.92;nan;100452.44;5053034;28;20168;-68
2021/10/02 12:34:43;;;;;;;3.27;1.20;;;;;;;27.17;nan;100472.09;5052419;28;20167;-68
2021/10/02 12:37:08;;;;;;;2.53;1.40;;;;;;;27.18;nan;100425.31;5054090;28;20250;-68
2021/10/02 12:39:43;;;;;;;3.30;1.30;;;;;;;26.67;nan;100427.34;5054141;28;20602;-67
2021/10/02 12:42:10;;;;;;;5.70;1.37;;;;;;;28.87;nan;100473.25;5052183;28;20174;-67